Latest Weather Observations for Combienbar

IDV60801

Issued at 5:32 pm EDT Saturday 3 December 2016 (issued every 30 minutes, with the page automatically refreshed every 10 minutes)

About weather observations | Map of weather stations | Latest weather observations for VIC | Other Formats
Station Details ID: 084143 Name: COMBIENBAR AWS Lat: -37.34 Lon: 149.02 Height: 640.0 m
Data from the previous 72 hours. | See also: Recent months at Combienbar
Date/Time
EDT
Temp
°C
App
Temp
°C
Dew
Point
°C
Rel
Hum
%
Delta-T
°C
Wind Press
QNH
hPa
Press
MSL
hPa
Rain since
9am
mm
Dir  Spd
km/h
Gust
km/h
Spd
kts
Gust
kts
03/05:30pm 14.8 15.6 12.7 87 1.2 CALM 0 0 0 0 1016.2 1014.1 0.0
03/05:00pm 15.0 15.8 12.7 86 1.3 CALM 0 0 0 0 1016.3 1014.2 0.0
03/04:30pm 15.0 15.7 12.3 84 1.5 CALM 0 0 0 0 1016.2 1014.1 0.0
03/04:00pm 15.2 15.9 12.3 83 1.6 CALM 0 0 0 0 1016.0 1014.0 0.0
03/03:30pm 15.5 16.4 12.8 84 1.5 CALM 0 0 0 0 1016.3 1014.2 0.0
03/03:00pm 15.4 16.2 12.5 83 1.6 CALM 0 0 0 0 1016.4 1014.3 0.0
03/02:30pm 15.1 15.8 12.1 82 1.7 CALM 0 2 0 1 1016.5 1014.4 0.0
03/02:00pm 15.4 16.2 12.5 83 1.6 CALM 0 2 0 1 1016.5 1014.4 0.0
03/01:30pm 15.3 16.1 12.4 83 1.6 CALM 0 2 0 1 1016.4 1014.3 0.0
03/01:00pm 15.2 16.0 12.5 84 1.5 CALM 0 0 0 0 1016.6 1014.5 0.0
03/12:30pm 14.8 15.5 12.1 84 1.5 CALM 0 4 0 2 1016.7 1014.6 0.0
03/12:00pm 14.5 15.2 12.2 86 1.3 CALM 0 0 0 0 1016.6 1014.5 0.0
03/11:30am 13.7 14.1 11.4 86 1.3 CALM 0 2 0 1 1016.6 1014.5 0.0
03/11:00am 13.9 14.5 11.8 87 1.2 CALM 0 2 0 1 1016.7 1014.6 0.0
03/10:30am 12.7 13.1 11.1 90 0.9 CALM 0 6 0 3 1016.9 1014.8 0.0
03/10:00am 12.8 13.2 11.4 91 0.8 CALM 0 4 0 2 1017.1 1015.0 0.0
03/09:30am 12.2 12.1 10.9 92 0.7 ENE 2 9 1 5 1017.0 1014.9 0.0
03/09:00am 12.2 12.7 11.7 97 0.3 CALM 0 2 0 1 1017.0 1014.9 0.0
03/08:30am 11.3 11.6 10.8 97 0.3 CALM 0 0 0 0 1017.1 1015.0 0.0
03/08:00am 10.8 10.9 10.3 97 0.3 CALM 0 0 0 0 1017.1 1015.0 0.0
03/07:30am 10.6 10.7 10.1 97 0.3 CALM 0 0 0 0 1016.9 1014.8 0.0
03/07:00am 10.4 10.4 9.9 97 0.3 CALM 0 0 0 0 1016.7 1014.6 0.0
03/06:30am 10.3 10.3 9.7 96 0.3 CALM 0 0 0 0 1016.4 1014.3 0.0
03/06:00am 10.2 10.1 9.6 96 0.3 CALM 0 0 0 0 1016.0 1014.0 0.0
03/05:30am 10.4 10.4 9.8 96 0.3 CALM 0 0 0 0 1015.8 1013.7 0.0
03/05:00am 10.5 10.5 9.7 95 0.4 CALM 0 0 0 0 1015.5 1013.4 0.0
03/04:30am 10.4 10.3 9.6 95 0.4 CALM 0 0 0 0 1015.5 1013.4 0.0
03/04:00am 10.5 10.4 9.6 94 0.5 CALM 0 0 0 0 1015.7 1013.6 0.0
03/03:30am 10.5 10.4 9.4 93 0.6 CALM 0 0 0 0 1015.8 1013.7 0.0
03/03:00am 10.6 10.5 9.4 92 0.6 CALM 0 0 0 0 1015.9 1013.9 0.0
03/02:30am 10.6 10.5 9.4 92 0.6 CALM 0 0 0 0 1016.3 1014.2 0.0
03/02:00am 10.7 10.6 9.5 92 0.6 CALM 0 0 0 0 1016.6 1014.5 0.0
03/01:30am 10.7 10.6 9.6 93 0.6 CALM 0 0 0 0 1016.7 1014.6 0.0
03/01:00am 10.8 10.8 9.9 94 0.5 CALM 0 0 0 0 1016.8 1014.7 0.0
03/12:30am 10.8 10.8 9.9 94 0.5 CALM 0 0 0 0 1016.9 1014.8 0.0
03/12:00am 10.9 11.0 10.0 94 0.5 CALM 0 0 0 0 1017.0 1014.9 0.0
 
Date/Time
EDT
Temp
°C
App
Temp
°C
Dew
Point
°C
Rel
Hum
%
Delta-T
°C
Wind Press
QNH
hPa
Press
MSL
hPa
Rain since
9am
mm
Dir  Spd
km/h
Gust
km/h
Spd
kts
Gust
kts
02/11:30pm 11.0 11.0 9.9 93 0.6 CALM 0 0 0 0 1017.0 1014.9 0.0
02/11:00pm 11.0 11.0 9.8 92 0.6 CALM 0 0 0 0 1016.9 1014.8 0.0
02/10:30pm 11.0 11.0 9.8 92 0.6 CALM 0 0 0 0 1016.8 1014.7 0.0
02/10:00pm 11.0 11.0 9.8 92 0.6 CALM 0 0 0 0 1016.8 1014.7 0.0
02/09:30pm 10.9 11.0 10.0 94 0.5 CALM 0 0 0 0 1016.6 1014.5 0.0
02/09:00pm 10.8 10.9 10.2 96 0.3 CALM 0 0 0 0 1016.4 1014.3 0.0
02/08:30pm 10.8 10.9 10.2 96 0.3 CALM 0 0 0 0 1016.0 1014.0 0.0
02/08:00pm 11.2 11.4 10.7 97 0.3 CALM 0 2 0 1 1015.6 1013.5 0.0
02/07:30pm 11.4 11.7 10.9 97 0.3 CALM 0 4 0 2 1015.1 1013.0 0.0
02/07:00pm 11.9 12.3 11.4 97 0.3 CALM 0 2 0 1 1014.7 1012.6 0.0
02/06:30pm 11.9 12.3 11.4 97 0.3 CALM 0 0 0 0 1014.1 1012.0 0.0
02/06:00pm 11.8 12.2 11.3 97 0.3 CALM 0 0 0 0 1014.0 1011.9 0.0
02/05:30pm 11.8 12.2 11.2 96 0.3 CALM 0 0 0 0 1013.7 1011.6 0.0
02/05:00pm 12.2 12.3 11.6 96 0.3 SW 2 4 1 2 1013.5 1011.4 0.0
02/04:30pm 12.9 13.1 11.8 93 0.6 SW 2 6 1 3 1013.3 1011.2 0.0
02/04:00pm 13.4 13.6 12.0 91 0.8 SSW 2 6 1 3 1013.0 1010.8 0.0
02/03:30pm 13.7 14.0 12.3 91 0.8 SSW 2 4 1 2 1012.7 1010.6 0.0
02/03:00pm 14.1 14.5 12.5 90 0.9 SSW 2 6 1 3 1012.5 1010.4 0.0
02/02:30pm 14.5 15.0 12.7 89 1.0 SSW 2 7 1 4 1012.3 1010.2 0.0
02/02:00pm 14.5 15.4 12.9 90 0.9 CALM 0 0 0 0 1012.0 1009.9 0.0
02/01:30pm 14.2 15.1 12.9 92 0.7 CALM 0 0 0 0 1012.0 1009.9 0.0
02/01:00pm 14.0 14.8 12.6 91 0.8 CALM 0 2 0 1 1011.9 1009.8 0.0
02/12:30pm 13.9 14.7 12.5 91 0.8 CALM 0 0 0 0 1011.8 1009.7 0.0
02/12:00pm 13.5 14.2 12.2 92 0.7 CALM 0 2 0 1 1011.8 1009.7 0.0
02/11:30am 13.7 14.4 12.3 91 0.8 CALM 0 2 0 1 1011.8 1009.7 0.0
02/11:00am 13.7 14.0 12.1 90 0.9 SSW 2 6 1 3 1011.6 1009.4 0.0
02/10:30am 15.2 15.1 12.2 82 1.7 SSW 4 9 2 5 1011.3 1009.1 0.0
02/10:00am 17.7 18.5 13.8 78 2.3 SSW 2 6 1 3 1010.5 1008.4 0.0
02/09:30am 16.6 16.8 12.0 74 2.6 SSW 2 6 1 3 1010.0 1007.8 0.0
02/09:00am 19.5 20.0 12.8 65 3.9 N 2 6 1 3 1009.7 1007.5 0.0
02/08:30am 20.4 21.7 14.1 67 3.8 CALM 0 6 0 3 1009.4 1007.3 0.0
02/08:00am 20.1 21.4 14.2 69 3.5 CALM 0 0 0 0 1009.2 1007.1 0.0
02/07:30am 18.4 19.1 12.2 67 3.5 CALM 0 0 0 0 1009.0 1006.9 0.0
02/07:00am 18.7 18.5 8.9 53 5.3 CALM 0 0 0 0 1008.7 1006.5 0.0
02/06:30am 16.5 16.1 8.2 58 4.4 CALM 0 0 0 0 1008.5 1006.3 0.0
02/06:00am 16.2 15.5 6.9 54 4.8 CALM 0 2 0 1 1008.5 1006.3 0.0
02/05:30am 17.6 16.6 5.5 45 6.1 CALM 0 0 0 0 1008.3 1006.1 0.0
02/05:00am 17.4 16.6 6.3 48 5.7 CALM 0 2 0 1 1008.1 1005.9 0.0
02/04:30am 17.3 16.6 6.8 50 5.4 CALM 0 0 0 0 1007.9 1005.7 0.0
02/04:00am 16.9 16.5 8.1 56 4.6 CALM 0 0 0 0 1007.9 1005.7 0.0
02/03:30am 17.6 16.9 7.1 50 5.4 CALM 0 0 0 0 1007.9 1005.7 0.0
02/03:00am 17.2 17.0 8.9 58 4.4 CALM 0 2 0 1 1007.9 1005.7 0.0
02/02:30am 16.9 17.0 10.3 65 3.6 CALM 0 4 0 2 1007.9 1005.7 0.0
02/02:00am 17.2 17.1 9.6 61 4.1 CALM 0 0 0 0 1008.0 1005.8 0.0
02/01:30am 16.3 16.6 11.0 71 2.9 CALM 0 0 0 0 1008.2 1006.0 0.0
02/01:00am 16.1 16.7 11.9 76 2.4 CALM 0 2 0 1 1008.3 1006.1 0.0
02/12:30am 15.7 16.3 13.0 84 1.5 N 2 6 1 3 1008.5 1006.3 0.0
02/12:00am 16.1 17.0 13.0 82 1.8 CALM 0 2 0 1 1008.5 1006.3 0.0
 
Date/Time
EDT
Temp
°C
App
Temp
°C
Dew
Point
°C
Rel
Hum
%
Delta-T
°C
Wind Press
QNH
hPa
Press
MSL
hPa
Rain since
9am
mm
Dir  Spd
km/h
Gust
km/h
Spd
kts
Gust
kts
01/11:30pm 16.0 16.9 12.9 82 1.8 CALM 0 0 0 0 1008.7 1006.5 0.0
01/11:00pm 16.1 16.7 13.0 82 1.8 ENE 2 6 1 3 1008.9 1006.7 0.0
01/10:30pm 15.7 16.2 12.8 83 1.7 SSE 2 7 1 4 1009.0 1006.9 0.0
01/10:00pm 15.7 16.5 12.5 81 1.8 CALM 0 0 0 0 1009.2 1007.1 0.0
01/09:30pm 15.4 16.1 12.3 82 1.7 CALM 0 0 0 0 1009.0 1006.9 0.0
01/09:00pm 15.9 16.7 12.6 81 1.9 CALM 0 0 0 0 1009.0 1006.9 0.0
01/08:30pm 15.9 16.7 12.5 80 1.9 CALM 0 0 0 0 1008.9 1006.7 0.0
01/08:00pm 16.6 17.4 12.6 77 2.3 CALM 0 0 0 0 1008.7 1006.5 0.0
01/07:30pm 17.3 18.2 12.8 75 2.6 CALM 0 0 0 0 1008.6 1006.4 0.0
01/07:00pm 18.2 19.0 12.6 70 3.2 CALM 0 0 0 0 1008.5 1006.3 0.0
01/06:30pm 18.9 19.8 12.9 68 3.5 CALM 0 0 0 0 1008.3 1006.1 0.0
01/06:00pm 20.0 21.2 13.9 68 3.6 CALM 0 0 0 0 1008.1 1005.9 0.0
01/05:30pm 21.6 23.1 14.7 65 4.2 CALM 0 0 0 0 1007.6 1005.5 0.0
01/05:00pm 23.0 24.6 14.8 60 5.0 CALM 0 4 0 2 1007.5 1005.3 0.0
01/04:30pm 23.3 24.1 13.8 55 5.7 SSW 2 4 1 2 1007.5 1005.3 0.0
01/04:00pm 23.9 25.1 13.7 53 6.1 CALM 0 4 0 2 1007.6 1005.5 0.0
01/03:30pm 23.4 24.4 13.3 53 6.0 CALM 0 4 0 2 1007.7 1005.6 0.0
01/03:00pm 23.1 24.2 14.7 59 5.1 SSW 2 6 1 3 1008.0 1005.8 0.0
01/02:30pm 22.0 22.9 14.1 61 4.7 SW 2 7 1 4 1008.2 1006.0 0.0
01/02:00pm 21.3 23.0 15.2 68 3.7 CALM 0 2 0 1 1008.5 1006.3 0.0
01/01:30pm 19.4 21.1 15.3 77 2.5 CALM 0 2 0 1 1008.5 1006.3 0.0
01/01:00pm 20.7 22.7 15.9 74 3.0 CALM 0 2 0 1 1008.5 1006.3 0.0
01/12:30pm 18.1 19.7 15.0 82 1.9 CALM 0 2 0 1 1008.7 1006.5 0.0
01/12:00pm 17.5 18.9 14.4 82 1.8 CALM 0 4 0 2 1008.7 1006.5 0.0
01/11:30am 19.1 20.8 15.2 78 2.4 CALM 0 4 0 2 1008.6 1006.4 0.0
01/11:00am 17.9 19.1 14.8 82 1.9 SSW 2 6 1 3 1008.4 1006.2 0.0
01/10:30am 18.9 20.3 14.4 75 2.7 CALM 0 6 0 3 1008.3 1006.5 0.0
01/10:00am 19.5 21.3 15.4 77 2.5 CALM 0 0 0 0 1008.4 1006.6 0.0
01/09:30am 19.6 20.6 14.2 71 3.2 ENE 2 9 1 5 1008.5 1006.8 0.0
01/09:00am 18.9 20.3 15.4 80 2.1 NE 2 6 1 3 1008.6 1006.9 4.6
01/08:30am 17.4 18.9 15.6 89 1.1 NE 2 4 1 2 1008.7 1007.0 4.6
01/08:00am 14.7 16.1 14.4 98 0.2 CALM 0 2 0 1 1008.8 1007.1 4.6
01/07:30am 13.5 14.1 13.2 98 0.2 NNE 2 4 1 2 1008.8 1007.1 4.6
01/07:00am 13.1 14.0 12.8 98 0.2 CALM 0 0 0 0 1008.8 1007.1 4.4
01/06:30am 12.9 13.7 12.6 98 0.2 CALM 0 0 0 0 1008.7 1007.0 4.4
01/06:00am 12.9 13.7 12.4 97 0.3 CALM 0 0 0 0 1008.6 1006.9 4.4
01/05:30am 13.0 13.8 12.5 97 0.3 CALM 0 0 0 0 1008.8 1007.1 4.4
01/05:00am 13.2 14.0 12.7 97 0.3 CALM 0 0 0 0 1008.9 1007.2 4.4
01/04:30am 13.3 14.1 12.7 96 0.3 CALM 0 0 0 0 1008.8 1007.1 4.4
01/04:00am 13.4 14.3 12.8 96 0.3 CALM 0 2 0 1 1008.6 1006.9 4.4
01/03:30am 13.7 14.6 12.8 94 0.5 CALM 0 0 0 0 1009.0 1007.3 4.2
01/03:00am 13.8 14.7 13.0 95 0.5 CALM 0 0 0 0 1008.7 1007.0 4.2
01/02:30am 14.0 15.0 13.2 95 0.5 CALM 0 4 0 2 1009.2 1007.5 4.2
01/02:00am 14.0 15.0 13.1 94 0.5 CALM 0 0 0 0 1009.2 1007.5 4.0
01/01:30am 14.2 15.2 13.1 93 0.6 CALM 0 0 0 0 1009.4 1007.7 3.8
01/01:00am 14.3 15.4 13.5 95 0.5 CALM 0 0 0 0 1009.8 1008.0 3.4
01/12:30am 14.4 15.6 13.8 96 0.3 CALM 0 0 0 0 1010.1 1008.4 3.2
01/12:00am 14.9 16.3 14.3 96 0.4 CALM 0 0 0 0 1010.2 1008.5 3.0
 
Date/Time
EDT
Temp
°C
App
Temp
°C
Dew
Point
°C
Rel
Hum
%
Delta-T
°C
Wind Press
QNH
hPa
Press
MSL
hPa
Rain since
9am
mm
Dir  Spd
km/h
Gust
km/h
Spd
kts
Gust
kts
30/11:30pm 14.9 16.3 14.3 96 0.4 CALM 0 0 0 0 1010.2 1008.5 2.8
30/11:00pm 15.2 16.7 14.6 96 0.4 CALM 0 0 0 0 1010.0 1008.3 2.4
30/10:30pm 15.5 17.1 14.9 96 0.4 CALM 0 0 0 0 1010.0 1008.3 2.0
30/10:00pm 15.4 17.0 14.8 96 0.4 CALM 0 2 0 1 1009.8 1008.0 1.8
30/09:30pm 15.7 17.3 14.9 95 0.5 CALM 0 2 0 1 1009.2 1007.5 1.6
30/09:00pm 16.0 17.5 14.7 92 0.8 CALM 0 0 0 0 1009.2 1007.5 1.4
30/08:30pm 16.1 17.3 13.9 87 1.3 CALM 0 0 0 0 1008.8 1007.1 1.4
30/08:00pm 16.6 17.9 14.2 86 1.4 CALM 0 0 0 0 1008.4 1006.6 1.2
30/07:30pm 16.7 18.0 15.2 91 0.9 N 2 7 1 4 1008.3 1006.5 1.0
30/07:00pm 17.7 18.8 15.5 87 1.3 N 4 9 2 5 1007.9 1006.1 0.8
30/06:30pm 18.6 19.5 16.0 85 1.6 NNE 6 9 3 5 1007.9 1006.1 0.8
30/06:00pm 19.0 21.2 16.4 85 1.6 CALM 0 4 0 2 1007.4 1005.7 0.6

Other Formats:

Comma delimited format used in spreadsheet applications
http://www.bom.gov.au/fwo/IDV60801/IDV60801.94914.axf

JavaScript Object Notation format (JSON) in row-major order
http://www.bom.gov.au/fwo/IDV60801/IDV60801.94914.json